Airfield :
LOGIN :

Register | Disclaimer

   EN    FR    IT 

 










Legend :    VFR   Marginal VFR   IFR   Intensive IFR   Very Intensive IFR
Visi :
Ceiling :
>= 8 km
>= 3000ft
5 to 8 km
1000 to 3000 ft
1500m to 5 km
500 to 1000 ft
800 to 1500m
200 to 500 ft
< 800m
< 200 ft
Symbols :   Thunderstorms  Fog  Heavy snow  Heavy precipitations  Wind > 20 kt
SIGMETs :     Misc.  Thunderstorms  Icing  Turbulence  Mountain Waves  Volcanic Ashes






- Airport Elevation : 306 ft
- IATA code : EMA


EGNX - Nottingham East Midlands

CURRENT METAR :
  • 052320Z 21006KT CAVOK 01/M02 Q1044

EXPIRED METARs :
  • 052250Z 20005KT CAVOK 01/M02 Q1045
  • 052220Z 23004KT CAVOK 01/M02 Q1045
  • 052120Z 17003KT 130V240 CAVOK 01/M02 Q1045
  • 052050Z 16003KT 130V240 CAVOK 02/M01 Q1045
  • 052020Z 18005KT CAVOK 01/M02 Q1045

TAF COR TAF EGNX
Valid from the 05 at 19:00 until the 06 at 18:00 UTC


051922Z 0519/0618 18003KT CAVOK
PROB30 0521/0524 8000
PROB30 0600/0609 6000
PROB30 0606/0609 4000 BR
ATIS : +44 1332 852 852 (ext 3201)



MET'MAP, your aeronautical weather chart ! - Copyright ORBIFLY December 2007 - Disclaimer

ORBIFLY MET'MAP TEAM :

Programming & Development : Alexandra Zaïnal
Original concept : Baudouin d'Aumeries
Technical & hardware support : Manuel Goepfert
Assistance : Marc-Olivier Méhu




SOURCES & CREDITS :

   NOAA